Newcomb, New Mexico
Current Conditions -  °F | °C
As of 8:53 AM on Friday 24 Oct 2014 (Local Time) from KFMN Reporting Station
Clear Clear  
Wind Chill: 43°   Ceiling: Unl
Heat Index: 47°   Visibility: 10mi
Dew Point: 34°   Wind: 8mph
Humidity: 61%   Direction: 100°E
Pressure: 30.36"   Gusts: NA
Location:  36.29°N, 108.71°W
Report Text: KFMN 241453Z 10007KT 10SM CLR 08/01 A3036 RMK AO2 SLP265 T00830011 53016
Loading
Personal Weather Stations






























Interactive Weather Map
Tropical Storm Tracking
New forecast layout! Learn more

10-Day Weather Forecast

Advertisements
Track Severe Weather on mobile